sensor_id;sensor_type;location;lat;lon;timestamp;pressure;altitude;pressure_sealevel;temperature;humidity
54407;BME280;40313;50.308;30.374;2023-01-30T00:37:14;99516.28;;;-3.55;100.00
54407;BME280;40313;50.308;30.374;2023-01-30T00:39:40;99518.00;;;-3.49;100.00
54407;BME280;40313;50.308;30.374;2023-01-30T00:42:07;99517.97;;;-3.44;100.00
54407;BME280;40313;50.308;30.374;2023-01-30T00:44:59;99518.84;;;-3.39;100.00
54407;BME280;40313;50.308;30.374;2023-01-30T00:47:43;99512.88;;;-3.34;100.00
54407;BME280;40313;50.308;30.374;2023-01-30T00:50:10;99508.59;;;-3.32;100.00
54407;BME280;40313;50.308;30.374;2023-01-30T00:52:37;99498.41;;;-3.28;100.00
54407;BME280;40313;50.308;30.374;2023-01-30T00:55:04;99508.63;;;-3.27;100.00
54407;BME280;40313;50.308;30.374;2023-01-30T00:57:31;99491.59;;;-3.25;100.00
54407;BME280;40313;50.308;30.374;2023-01-30T00:59:57;99487.34;;;-3.23;100.00
54407;BME280;40313;50.308;30.374;2023-01-30T01:02:23;99484.78;;;-3.21;100.00
54407;BME280;40313;50.308;30.374;2023-01-30T01:04:50;99481.38;;;-3.22;100.00
54407;BME280;40313;50.308;30.374;2023-01-30T01:07:17;99478.81;;;-3.20;100.00
54407;BME280;40313;50.308;30.374;2023-01-30T01:09:44;99481.38;;;-3.20;100.00
54407;BME280;40313;50.308;30.374;2023-01-30T01:12:11;99480.53;;;-3.19;100.00
54407;BME280;40313;50.308;30.374;2023-01-30T01:14:37;99477.97;;;-3.19;100.00
54407;BME280;40313;50.308;30.374;2023-01-30T01:17:03;99474.59;;;-3.20;100.00
54407;BME280;40313;50.308;30.374;2023-01-30T01:19:30;99461.81;;;-3.20;100.00
54407;BME280;40313;50.308;30.374;2023-01-30T01:21:56;99453.28;;;-3.19;100.00
54407;BME280;40313;50.308;30.374;2023-01-30T01:24:22;99457.56;;;-3.19;100.00
54407;BME280;40313;50.308;30.374;2023-01-30T01:26:50;99451.63;;;-3.20;100.00
54407;BME280;40313;50.308;30.374;2023-01-30T01:29:16;99454.19;;;-3.21;100.00
54407;BME280;40313;50.308;30.374;2023-01-30T01:31:43;99449.94;;;-3.22;100.00
54407;BME280;40313;50.308;30.374;2023-01-30T01:34:09;99443.97;;;-3.26;100.00
54407;BME280;40313;50.308;30.374;2023-01-30T01:36:36;99450.81;;;-3.30;100.00
54407;BME280;40313;50.308;30.374;2023-01-30T01:39:03;99449.94;;;-3.32;100.00
54407;BME280;40313;50.308;30.374;2023-01-30T01:41:29;99446.56;;;-3.35;100.00
54407;BME280;40313;50.308;30.374;2023-01-30T01:44:00;99449.97;;;-3.36;100.00
54407;BME280;40313;50.308;30.374;2023-01-30T01:46:27;99440.59;;;-3.39;100.00
54407;BME280;40313;50.308;30.374;2023-01-30T01:48:55;99439.78;;;-3.41;100.00
54407;BME280;40313;50.308;30.374;2023-01-30T01:51:24;99440.63;;;-3.42;100.00
54407;BME280;40313;50.308;30.374;2023-01-30T01:53:53;99445.72;;;-3.42;100.00
54407;BME280;40313;50.308;30.374;2023-01-30T01:56:21;99440.63;;;-3.42;100.00
54407;BME280;40313;50.308;30.374;2023-01-30T01:58:49;99433.81;;;-3.46;100.00
54407;BME280;40313;50.308;30.374;2023-01-30T02:01:17;99444.03;;;-3.43;100.00
54407;BME280;40313;50.308;30.374;2023-01-30T02:03:44;99443.16;;;-3.42;100.00
54407;BME280;40313;50.308;30.374;2023-01-30T02:06:12;99444.03;;;-3.40;100.00
54407;BME280;40313;50.308;30.374;2023-01-30T02:08:41;99435.50;;;-3.39;100.00
54407;BME280;40313;50.308;30.374;2023-01-30T02:11:08;99427.88;;;-3.36;100.00
54407;BME280;40313;50.308;30.374;2023-01-30T02:13:37;99428.69;;;-3.34;100.00
54407;BME280;40313;50.308;30.374;2023-01-30T02:16:04;99431.25;;;-3.32;100.00
54407;BME280;40313;50.308;30.374;2023-01-30T02:18:33;99429.56;;;-3.30;100.00
54407;BME280;40313;50.308;30.374;2023-01-30T02:21:06;99425.28;;;-3.30;100.00
54407;BME280;40313;50.308;30.374;2023-01-30T02:29:30;99412.50;;;-3.25;100.00
54407;BME280;40313;50.308;30.374;2023-01-30T02:32:02;99404.84;;;-3.23;100.00
54407;BME280;40313;50.308;30.374;2023-01-30T02:34:34;99404.84;;;-3.20;100.00
54407;BME280;40313;50.308;30.374;2023-01-30T02:37:04;99402.28;;;-3.19;100.00
54407;BME280;40313;50.308;30.374;2023-01-30T02:39:37;99398.88;;;-3.16;100.00
54407;BME280;40313;50.308;30.374;2023-01-30T02:42:10;99392.91;;;-3.15;100.00
54407;BME280;40313;50.308;30.374;2023-01-30T02:44:42;99388.66;;;-3.15;100.00
54407;BME280;40313;50.308;30.374;2023-01-30T02:47:12;99388.63;;;-3.13;100.00
54407;BME280;40313;50.308;30.374;2023-01-30T02:49:41;99382.69;;;-3.10;100.00
54407;BME280;40313;50.308;30.374;2023-01-30T02:52:10;99375.91;;;-3.10;100.00
54407;BME280;40313;50.308;30.374;2023-01-30T02:54:37;99366.53;;;-3.09;100.00
54407;BME280;40313;50.308;30.374;2023-01-30T02:57:14;99371.63;;;-3.08;100.00
54407;BME280;40313;50.308;30.374;2023-01-30T02:59:42;99375.00;;;-3.06;100.00
54407;BME280;40313;50.308;30.374;2023-01-30T03:02:16;99363.94;;;-3.05;100.00
54407;BME280;40313;50.308;30.374;2023-01-30T03:04:53;99363.94;;;-3.05;100.00
54407;BME280;40313;50.308;30.374;2023-01-30T03:07:26;99362.25;;;-3.03;100.00
54407;BME280;40313;50.308;30.374;2023-01-30T03:10:00;99366.47;;;-3.03;100.00
54407;BME280;40313;50.308;30.374;2023-01-30T03:12:32;99352.88;;;-3.02;100.00
54407;BME280;40313;50.308;30.374;2023-01-30T03:15:04;99349.50;;;-3.03;100.00
54407;BME280;40313;50.308;30.374;2023-01-30T03:17:32;99351.16;;;-3.02;100.00
54407;BME280;40313;50.308;30.374;2023-01-30T03:19:59;99352.00;;;-3.00;100.00
54407;BME280;40313;50.308;30.374;2023-01-30T03:22:26;99349.44;;;-2.98;100.00
54407;BME280;40313;50.308;30.374;2023-01-30T03:24:52;99352.84;;;-2.98;100.00
54407;BME280;40313;50.308;30.374;2023-01-30T03:27:19;99346.88;;;-2.95;100.00
54407;BME280;40313;50.308;30.374;2023-01-30T03:29:46;99334.16;;;-3.00;100.00
54407;BME280;40313;50.308;30.374;2023-01-30T03:32:13;99342.59;;;-2.93;100.00
54407;BME280;40313;50.308;30.374;2023-01-30T03:34:40;99340.03;;;-2.93;100.00
54407;BME280;40313;50.308;30.374;2023-01-30T03:37:07;99345.16;;;-2.93;100.00
54407;BME280;40313;50.308;30.374;2023-01-30T03:39:33;99337.50;;;-2.93;100.00
54407;BME280;40313;50.308;30.374;2023-01-30T03:42:00;99327.28;;;-2.93;100.00
54407;BME280;40313;50.308;30.374;2023-01-30T03:44:26;99332.41;;;-2.91;100.00
54407;BME280;40313;50.308;30.374;2023-01-30T03:46:53;99340.06;;;-2.91;100.00
54407;BME280;40313;50.308;30.374;2023-01-30T03:49:19;99331.53;;;-2.90;100.00
54407;BME280;40313;50.308;30.374;2023-01-30T03:51:47;99336.63;;;-2.90;100.00
54407;BME280;40313;50.308;30.374;2023-01-30T03:54:13;99328.13;;;-2.89;100.00
54407;BME280;40313;50.308;30.374;2023-01-30T03:56:39;99321.31;;;-2.90;100.00
54407;BME280;40313;50.308;30.374;2023-01-30T03:59:06;99322.16;;;-2.88;100.00
54407;BME280;40313;50.308;30.374;2023-01-30T04:01:32;99319.63;;;-2.88;100.00
54407;BME280;40313;50.308;30.374;2023-01-30T04:03:58;99308.56;;;-2.90;100.00
54407;BME280;40313;50.308;30.374;2023-01-30T04:06:25;99306.88;;;-2.90;100.00
54407;BME280;40313;50.308;30.374;2023-01-30T04:08:53;99309.41;;;-2.88;100.00
54407;BME280;40313;50.308;30.374;2023-01-30T04:11:19;99306.00;;;-2.90;100.00
54407;BME280;40313;50.308;30.374;2023-01-30T04:13:45;99305.13;;;-2.88;100.00
54407;BME280;40313;50.308;30.374;2023-01-30T04:16:13;99303.41;;;-2.87;100.00
54407;BME280;40313;50.308;30.374;2023-01-30T04:18:39;99309.41;;;-2.87;100.00
54407;BME280;40313;50.308;30.374;2023-01-30T04:21:05;99307.69;;;-2.89;100.00
54407;BME280;40313;50.308;30.374;2023-01-30T04:23:32;99311.97;;;-2.88;100.00
54407;BME280;40313;50.308;30.374;2023-01-30T04:25:59;99311.09;;;-2.89;100.00
54407;BME280;40313;50.308;30.374;2023-01-30T04:28:26;99313.66;;;-2.90;100.00
54407;BME280;40313;50.308;30.374;2023-01-30T04:30:52;99310.28;;;-2.91;100.00
54407;BME280;40313;50.308;30.374;2023-01-30T04:33:19;99310.28;;;-2.91;100.00
54407;BME280;40313;50.308;30.374;2023-01-30T04:35:50;99306.88;;;-2.91;100.00
54407;BME280;40313;50.308;30.374;2023-01-30T04:38:16;99306.00;;;-2.90;100.00
54407;BME280;40313;50.308;30.374;2023-01-30T04:40:46;99300.88;;;-2.87;100.00
54407;BME280;40313;50.308;30.374;2023-01-30T04:43:14;99299.22;;;-2.90;100.00
54407;BME280;40313;50.308;30.374;2023-01-30T04:45:41;99297.50;;;-2.89;100.00
54407;BME280;40313;50.308;30.374;2023-01-30T04:48:07;99299.19;;;-2.88;100.00
54407;BME280;40313;50.308;30.374;2023-01-30T04:50:34;99292.41;;;-2.91;100.00
54407;BME280;40313;50.308;30.374;2023-01-30T04:53:00;99295.75;;;-2.87;100.00
54407;BME280;40313;50.308;30.374;2023-01-30T04:55:26;99294.91;;;-2.86;100.00
54407;BME280;40313;50.308;30.374;2023-01-30T04:57:53;99298.34;;;-2.86;100.00
54407;BME280;40313;50.308;30.374;2023-01-30T05:00:20;99291.53;;;-2.88;100.00
54407;BME280;40313;50.308;30.374;2023-01-30T05:02:47;99287.25;;;-2.86;100.00
54407;BME280;40313;50.308;30.374;2023-01-30T05:05:13;99282.16;;;-2.86;100.00
54407;BME280;40313;50.308;30.374;2023-01-30T05:07:40;99273.66;;;-2.85;100.00
54407;BME280;40313;50.308;30.374;2023-01-30T05:10:06;99266.81;;;-2.85;100.00
54407;BME280;40313;50.308;30.374;2023-01-30T05:12:33;99258.34;;;-2.85;100.00
54407;BME280;40313;50.308;30.374;2023-01-30T05:14:59;99255.75;;;-2.84;100.00
54407;BME280;40313;50.308;30.374;2023-01-30T05:17:27;99256.59;;;-2.83;100.00
54407;BME280;40313;50.308;30.374;2023-01-30T05:19:53;99256.59;;;-2.83;100.00
54407;BME280;40313;50.308;30.374;2023-01-30T05:22:20;99260.88;;;-2.84;100.00
54407;BME280;40313;50.308;30.374;2023-01-30T05:24:46;99254.06;;;-2.85;100.00
54407;BME280;40313;50.308;30.374;2023-01-30T05:27:12;99248.94;;;-2.83;100.00
54407;BME280;40313;50.308;30.374;2023-01-30T05:29:39;99260.00;;;-2.81;100.00
54407;BME280;40313;50.308;30.374;2023-01-30T05:32:05;99252.34;;;-2.81;100.00
54407;BME280;40313;50.308;30.374;2023-01-30T05:34:33;99247.25;;;-2.81;100.00
54407;BME280;40313;50.308;30.374;2023-01-30T05:36:59;99254.00;;;-2.80;100.00
54407;BME280;40313;50.308;30.374;2023-01-30T05:39:25;99248.94;;;-2.79;100.00
54407;BME280;40313;50.308;30.374;2023-01-30T05:41:52;99233.59;;;-2.80;100.00
54407;BME280;40313;50.308;30.374;2023-01-30T05:44:18;99234.44;;;-2.76;100.00
54407;BME280;40313;50.308;30.374;2023-01-30T05:46:44;99231.88;;;-2.76;100.00
54407;BME280;40313;50.308;30.374;2023-01-30T05:49:11;99231.84;;;-2.73;100.00
54407;BME280;40313;50.308;30.374;2023-01-30T05:51:38;99225.06;;;-2.73;100.00
54407;BME280;40313;50.308;30.374;2023-01-30T05:54:05;99221.59;;;-2.69;100.00
54407;BME280;40313;50.308;30.374;2023-01-30T05:56:31;99219.00;;;-2.67;100.00
54407;BME280;40313;50.308;30.374;2023-01-30T05:58:58;99224.97;;;-2.65;100.00
54407;BME280;40313;50.308;30.374;2023-01-30T10:44:48;98835.34;;;-0.57;100.00
54407;BME280;40313;50.308;30.374;2023-01-30T10:47:26;98832.50;;;-0.46;100.00
54407;BME280;40313;50.308;30.374;2023-01-30T10:50:01;98835.69;;;-0.36;100.00
54407;BME280;40313;50.308;30.374;2023-01-30T10:52:40;98831.38;;;-0.34;100.00
54407;BME280;40313;50.308;30.374;2023-01-30T10:55:15;98818.38;;;-0.26;100.00
54407;BME280;40313;50.308;30.374;2023-01-30T10:57:52;98827.53;;;-0.18;100.00
54407;BME280;40313;50.308;30.374;2023-01-30T11:00:26;98809.50;;;-0.14;100.00
54407;BME280;40313;50.308;30.374;2023-01-30T11:03:12;98804.34;;;-0.13;100.00
54407;BME280;40313;50.308;30.374;2023-01-30T11:05:44;98795.84;;;-0.15;100.00
54407;BME280;40313;50.308;30.374;2023-01-30T11:08:21;98798.38;;;-0.13;100.00
54407;BME280;40313;50.308;30.374;2023-01-30T11:10:48;98790.00;;;-0.19;100.00
54407;BME280;40313;50.308;30.374;2023-01-30T11:13:18;98783.25;;;-0.23;100.00
54407;BME280;40313;50.308;30.374;2023-01-30T11:15:48;98782.34;;;-0.22;100.00
54407;BME280;40313;50.308;30.374;2023-01-30T11:18:16;98782.56;;;-0.29;100.00
54407;BME280;40313;50.308;30.374;2023-01-30T11:20:45;98769.78;;;-0.31;100.00
54407;BME280;40313;50.308;30.374;2023-01-30T11:23:25;98769.78;;;-0.31;100.00
54407;BME280;40313;50.308;30.374;2023-01-30T11:25:56;98757.69;;;-0.26;100.00
54407;BME280;40313;50.308;30.374;2023-01-30T11:28:24;98759.25;;;-0.20;100.00
54407;BME280;40313;50.308;30.374;2023-01-30T11:30:55;98759.00;;;-0.11;100.00
54407;BME280;40313;50.308;30.374;2023-01-30T11:33:23;98755.34;;;-0.02;100.00
54407;BME280;40313;50.308;30.374;2023-01-30T11:35:58;98745.63;;;0.09;100.00
54407;BME280;40313;50.308;30.374;2023-01-30T11:38:28;98725.84;;;0.14;100.00
54407;BME280;40313;50.308;30.374;2023-01-30T11:41:16;98724.69;;;0.25;100.00
54407;BME280;40313;50.308;30.374;2023-01-30T11:43:44;98718.75;;;0.23;100.00
54407;BME280;40313;50.308;30.374;2023-01-30T11:46:16;98715.22;;;0.27;100.00
54407;BME280;40313;50.308;30.374;2023-01-30T11:48:48;98709.16;;;0.29;100.00
54407;BME280;40313;50.308;30.374;2023-01-30T11:51:17;98698.91;;;0.29;100.00
54407;BME280;40313;50.308;30.374;2023-01-30T11:53:47;98708.44;;;0.26;100.00
54407;BME280;40313;50.308;30.374;2023-01-30T11:56:19;98705.03;;;0.24;100.00
54407;BME280;40313;50.308;30.374;2023-01-30T11:58:53;98706.88;;;0.19;100.00
54407;BME280;40313;50.308;30.374;2023-01-30T12:01:26;98701.31;;;0.04;100.00
54407;BME280;40313;50.308;30.374;2023-01-30T12:03:54;98703.44;;;-0.10;100.00
54407;BME280;40313;50.308;30.374;2023-01-30T12:06:23;98699.47;;;-0.21;100.00
54407;BME280;40313;50.308;30.374;2023-01-30T12:08:52;98688.63;;;-0.30;100.00
54407;BME280;40313;50.308;30.374;2023-01-30T12:11:28;98694.84;;;-0.39;100.00
54407;BME280;40313;50.308;30.374;2023-01-30T12:14:08;98692.22;;;-0.38;100.00
54407;BME280;40313;50.308;30.374;2023-01-30T12:16:47;98684.50;;;-0.36;100.00
54407;BME280;40313;50.308;30.374;2023-01-30T12:19:27;98680.28;;;-0.39;100.00
54407;BME280;40313;50.308;30.374;2023-01-30T12:22:00;98675.97;;;-0.37;100.00
54407;BME280;40313;50.308;30.374;2023-01-30T12:24:37;98670.84;;;-0.37;100.00
54407;BME280;40313;50.308;30.374;2023-01-30T12:27:12;98666.66;;;-0.39;100.00
54407;BME280;40313;50.308;30.374;2023-01-30T12:29:53;98670.16;;;-0.43;100.00
54407;BME280;40313;50.308;30.374;2023-01-30T12:32:25;98664.09;;;-0.39;100.00
54407;BME280;40313;50.308;30.374;2023-01-30T12:34:52;98656.50;;;-0.42;100.00
54407;BME280;40313;50.308;30.374;2023-01-30T12:37:34;98657.28;;;-0.40;100.00
54407;BME280;40313;50.308;30.374;2023-01-30T12:40:13;98659.06;;;-0.42;100.00
54407;BME280;40313;50.308;30.374;2023-01-30T12:43:07;98652.28;;;-0.45;100.00
54407;BME280;40313;50.308;30.374;2023-01-30T12:45:41;98648.91;;;-0.45;100.00
54407;BME280;40313;50.308;30.374;2023-01-30T12:48:33;98653.16;;;-0.44;100.00
54407;BME280;40313;50.308;30.374;2023-01-30T12:51:13;98651.44;;;-0.45;100.00
54407;BME280;40313;50.308;30.374;2023-01-30T12:53:51;98648.03;;;-0.46;100.00
54407;BME280;40313;50.308;30.374;2023-01-30T12:56:34;98642.13;;;-0.48;100.00
54407;BME280;40313;50.308;30.374;2023-01-30T12:59:12;98640.38;;;-0.47;100.00
54407;BME280;40313;50.308;30.374;2023-01-30T13:01:43;98647.34;;;-0.51;100.00
54407;BME280;40313;50.308;30.374;2023-01-30T13:04:23;98649.03;;;-0.52;100.00
54407;BME280;40313;50.308;30.374;2023-01-30T13:07:02;98646.66;;;-0.58;100.00
54407;BME280;40313;50.308;30.374;2023-01-30T13:09:46;98649.31;;;-0.61;100.00
54407;BME280;40313;50.308;30.374;2023-01-30T13:12:19;98646.91;;;-0.67;100.00
54407;BME280;40313;50.308;30.374;2023-01-30T13:14:54;98639.28;;;-0.70;100.00
54407;BME280;40313;50.308;30.374;2023-01-30T13:17:41;98633.44;;;-0.74;100.00
54407;BME280;40313;50.308;30.374;2023-01-30T13:20:20;98632.56;;;-0.73;100.00
54407;BME280;40313;50.308;30.374;2023-01-30T13:22:54;98631.78;;;-0.76;100.00
54407;BME280;40313;50.308;30.374;2023-01-30T13:25:27;98631.00;;;-0.78;100.00
54407;BME280;40313;50.308;30.374;2023-01-30T13:27:58;98626.78;;;-0.81;100.00
54407;BME280;40313;50.308;30.374;2023-01-30T13:30:28;98616.59;;;-0.82;100.00
54407;BME280;40313;50.308;30.374;2023-01-30T13:32:58;98614.81;;;-0.80;100.00
54407;BME280;40313;50.308;30.374;2023-01-30T13:35:31;98613.97;;;-0.81;100.00
54407;BME280;40313;50.308;30.374;2023-01-30T13:38:02;98606.31;;;-0.81;100.00
54407;BME280;40313;50.308;30.374;2023-01-30T13:40:35;98610.66;;;-0.84;100.00
54407;BME280;40313;50.308;30.374;2023-01-30T13:43:05;98605.63;;;-0.88;100.00
54407;BME280;40313;50.308;30.374;2023-01-30T13:45:41;98600.56;;;-0.91;100.00
54407;BME280;40313;50.308;30.374;2023-01-30T13:48:20;98603.13;;;-0.91;100.00
54407;BME280;40313;50.308;30.374;2023-01-30T13:51:01;98583.63;;;-0.95;100.00
54407;BME280;40313;50.308;30.374;2023-01-30T13:53:33;98590.34;;;-0.91;100.00
54407;BME280;40313;50.308;30.374;2023-01-30T13:56:09;98590.34;;;-0.91;100.00
54407;BME280;40313;50.308;30.374;2023-01-30T13:58:44;98583.47;;;-0.90;100.00
54407;BME280;40313;50.308;30.374;2023-01-30T14:01:14;98580.94;;;-0.90;100.00
54407;BME280;40313;50.308;30.374;2023-01-30T14:03:41;98583.63;;;-0.95;100.00
54407;BME280;40313;50.308;30.374;2023-01-30T18:09:31;98486.75;;;-2.11;100.00
54407;BME280;40313;50.308;30.374;2023-01-30T18:11:58;98484.16;;;-2.09;100.00
54407;BME280;40313;50.308;30.374;2023-01-30T18:14:24;98487.50;;;-2.05;100.00
54407;BME280;40313;50.308;30.374;2023-01-30T18:16:51;98482.44;;;-2.07;100.00
54407;BME280;40313;50.308;30.374;2023-01-30T18:19:24;98487.47;;;-2.04;100.00
54407;BME280;40313;50.308;30.374;2023-01-30T18:21:51;98478.06;;;-2.03;100.00
54407;BME280;40313;50.308;30.374;2023-01-30T18:24:18;98484.00;;;-2.01;100.00
54407;BME280;40313;50.308;30.374;2023-01-30T18:26:45;98470.44;;;-2.05;100.00
54407;BME280;40313;50.308;30.374;2023-01-30T18:29:12;98461.91;;;-2.04;100.00
54407;BME280;40313;50.308;30.374;2023-01-30T18:31:39;98469.59;;;-2.05;100.00
54407;BME280;40313;50.308;30.374;2023-01-30T18:34:06;98461.16;;;-2.09;100.00
54407;BME280;40313;50.308;30.374;2023-01-30T18:36:33;98464.56;;;-2.09;100.00
54407;BME280;40313;50.308;30.374;2023-01-30T18:38:59;98474.72;;;-2.05;100.00
54407;BME280;40313;50.308;30.374;2023-01-30T18:41:27;98471.25;;;-2.04;100.00
54407;BME280;40313;50.308;30.374;2023-01-30T18:43:55;98473.81;;;-2.03;100.00
54407;BME280;40313;50.308;30.374;2023-01-30T18:46:23;98469.56;;;-2.04;100.00
54407;BME280;40313;50.308;30.374;2023-01-30T18:48:49;98468.72;;;-2.04;100.00
54407;BME280;40313;50.308;30.374;2023-01-30T18:51:18;98461.13;;;-2.08;100.00
54407;BME280;40313;50.308;30.374;2023-01-30T18:53:46;98467.09;;;-2.07;100.00
54407;BME280;40313;50.308;30.374;2023-01-30T18:56:14;98470.50;;;-2.08;100.00
54407;BME280;40313;50.308;30.374;2023-01-30T18:58:41;98458.59;;;-2.09;100.00
54407;BME280;40313;50.308;30.374;2023-01-30T19:01:11;98459.47;;;-2.09;100.00
54407;BME280;40313;50.308;30.374;2023-01-30T19:03:39;98457.75;;;-2.08;100.00
54407;BME280;40313;50.308;30.374;2023-01-30T19:06:06;98448.38;;;-2.09;100.00
54407;BME280;40313;50.308;30.374;2023-01-30T19:08:33;98451.81;;;-2.10;100.00
54407;BME280;40313;50.308;30.374;2023-01-30T19:11:02;98451.81;;;-2.09;100.00
54407;BME280;40313;50.308;30.374;2023-01-30T19:13:49;98462.03;;;-2.10;100.00
54407;BME280;40313;50.308;30.374;2023-01-30T19:16:16;98456.09;;;-2.11;100.00
54407;BME280;40313;50.308;30.374;2023-01-30T19:18:43;98456.22;;;-2.15;100.00
54407;BME280;40313;50.308;30.374;2023-01-30T19:21:09;98460.53;;;-2.19;100.00
54407;BME280;40313;50.308;30.374;2023-01-30T19:23:36;98453.09;;;-2.28;100.00
54407;BME280;40313;50.308;30.374;2023-01-30T19:26:03;98458.28;;;-2.31;100.00
54407;BME280;40313;50.308;30.374;2023-01-30T19:28:30;98459.28;;;-2.37;100.00
54407;BME280;40313;50.308;30.374;2023-01-30T19:30:57;98457.63;;;-2.39;100.00
54407;BME280;40313;50.308;30.374;2023-01-30T19:33:25;98458.56;;;-2.44;100.00
54407;BME280;40313;50.308;30.374;2023-01-30T19:35:51;98459.47;;;-2.46;100.00
54407;BME280;40313;50.308;30.374;2023-01-30T19:38:18;98457.88;;;-2.52;100.00
54407;BME280;40313;50.308;30.374;2023-01-30T19:40:45;98463.09;;;-2.56;100.00
54407;BME280;40313;50.308;30.374;2023-01-30T19:43:12;98455.50;;;-2.59;100.00
54407;BME280;40313;50.308;30.374;2023-01-30T19:45:40;98457.31;;;-2.65;100.00
54407;BME280;40313;50.308;30.374;2023-01-30T19:48:07;98454.81;;;-2.66;100.00
54407;BME280;40313;50.308;30.374;2023-01-30T19:50:36;98462.50;;;-2.68;100.00
54407;BME280;40313;50.308;30.374;2023-01-30T19:53:03;98460.00;;;-2.71;100.00
54407;BME280;40313;50.308;30.374;2023-01-30T19:55:31;98460.84;;;-2.70;100.00
54407;BME280;40313;50.308;30.374;2023-01-30T19:57:58;98460.84;;;-2.70;100.00
54407;BME280;40313;50.308;30.374;2023-01-30T20:00:24;98453.16;;;-2.69;100.00
54407;BME280;40313;50.308;30.374;2023-01-30T20:02:51;98451.50;;;-2.70;100.00
54407;BME280;40313;50.308;30.374;2023-01-30T20:05:17;98463.31;;;-2.67;100.00
54407;BME280;40313;50.308;30.374;2023-01-30T20:07:46;98462.50;;;-2.68;100.00
54407;BME280;40313;50.308;30.374;2023-01-30T20:10:14;98455.69;;;-2.69;100.00
54407;BME280;40313;50.308;30.374;2023-01-30T20:12:41;98454.84;;;-2.68;100.00
54407;BME280;40313;50.308;30.374;2023-01-30T20:15:08;98455.69;;;-2.69;100.00
54407;BME280;40313;50.308;30.374;2023-01-30T20:17:35;98453.97;;;-2.67;100.00
54407;BME280;40313;50.308;30.374;2023-01-30T20:20:02;98458.22;;;-2.67;100.00
54407;BME280;40313;50.308;30.374;2023-01-30T20:22:28;98454.00;;;-2.68;100.00
54407;BME280;40313;50.308;30.374;2023-01-30T20:24:56;98459.06;;;-2.67;100.00
54407;BME280;40313;50.308;30.374;2023-01-30T20:27:23;98448.91;;;-2.68;100.00
54407;BME280;40313;50.308;30.374;2023-01-30T20:29:49;98454.03;;;-2.70;100.00
54407;BME280;40313;50.308;30.374;2023-01-30T20:32:15;98443.91;;;-2.74;100.00
54407;BME280;40313;50.308;30.374;2023-01-30T20:34:42;98454.13;;;-2.74;100.00
54407;BME280;40313;50.308;30.374;2023-01-30T20:37:08;98454.19;;;-2.78;100.00
54407;BME280;40313;50.308;30.374;2023-01-30T20:39:34;98458.47;;;-2.78;100.00
54407;BME280;40313;50.308;30.374;2023-01-30T20:42:02;98464.44;;;-2.79;100.00
54407;BME280;40313;50.308;30.374;2023-01-30T20:44:28;98466.13;;;-2.78;100.00
54407;BME280;40313;50.308;30.374;2023-01-30T20:46:55;98461.06;;;-2.80;100.00
54407;BME280;40313;50.308;30.374;2023-01-30T20:49:21;98461.06;;;-2.80;100.00
54407;BME280;40313;50.308;30.374;2023-01-30T20:51:49;98459.31;;;-2.79;100.00
54407;BME280;40313;50.308;30.374;2023-01-30T20:54:16;98461.09;;;-2.81;100.00
54407;BME280;40313;50.308;30.374;2023-01-30T20:56:43;98456.84;;;-2.82;100.00
54407;BME280;40313;50.308;30.374;2023-01-30T20:59:12;98467.84;;;-2.80;100.00
54407;BME280;40313;50.308;30.374;2023-01-30T21:01:39;98462.75;;;-2.80;100.00
54407;BME280;40313;50.308;30.374;2023-01-30T21:04:06;98462.75;;;-2.79;100.00
54407;BME280;40313;50.308;30.374;2023-01-30T21:06:33;98460.16;;;-2.77;100.00
54407;BME280;40313;50.308;30.374;2023-01-30T21:09:00;98471.19;;;-2.76;100.00
54407;BME280;40313;50.308;30.374;2023-01-30T21:11:27;98461.88;;;-2.79;100.00
54407;BME280;40313;50.308;30.374;2023-01-30T21:13:53;98466.16;;;-2.80;100.00
54407;BME280;40313;50.308;30.374;2023-01-30T21:16:22;98461.06;;;-2.80;100.00
54407;BME280;40313;50.308;30.374;2023-01-30T21:18:49;98461.00;;;-2.78;100.00
54407;BME280;40313;50.308;30.374;2023-01-30T21:21:17;98459.28;;;-2.78;100.00
54407;BME280;40313;50.308;30.374;2023-01-30T21:23:44;98447.44;;;-2.79;100.00
54407;BME280;40313;50.308;30.374;2023-01-30T21:26:11;98448.22;;;-2.76;100.00
54407;BME280;40313;50.308;30.374;2023-01-30T21:28:37;98446.50;;;-2.76;100.00
54407;BME280;40313;50.308;30.374;2023-01-30T21:31:04;98446.56;;;-2.79;100.00
54407;BME280;40313;50.308;30.374;2023-01-30T21:33:32;98445.78;;;-2.81;100.00
54407;BME280;40313;50.308;30.374;2023-01-30T21:35:59;98445.78;;;-2.81;100.00
54407;BME280;40313;50.308;30.374;2023-01-30T21:38:25;98440.66;;;-2.81;100.00
54407;BME280;40313;50.308;30.374;2023-01-30T21:41:10;98439.00;;;-2.84;100.00
54407;BME280;40313;50.308;30.374;2023-01-30T21:43:53;98433.94;;;-2.85;100.00
54407;BME280;40313;50.308;30.374;2023-01-30T21:46:19;98434.81;;;-2.86;100.00
54407;BME280;40313;50.308;30.374;2023-01-30T21:48:47;98433.97;;;-2.87;100.00
54407;BME280;40313;50.308;30.374;2023-01-30T21:51:13;98428.91;;;-2.88;100.00
54407;BME280;40313;50.308;30.374;2023-01-30T21:53:40;98431.41;;;-2.85;100.00
54407;BME280;40313;50.308;30.374;2023-01-30T21:56:06;98430.56;;;-2.86;100.00
54407;BME280;40313;50.308;30.374;2023-01-30T21:58:32;98431.41;;;-2.85;100.00
54407;BME280;40313;50.308;30.374;2023-01-30T22:01:03;98433.09;;;-2.84;100.00
